Time;durP1;ratioP1;P1;durP2;ratioP2;P2;SDS_P1;SDS_P2;PMS_P1;PMS_P2;Temp;Humidity;BMP_temperature;BMP_pressure;BME280_temperature;BME280_humidity;BME280_pressure;Samples;Min_cycle;Max_cycle;Signal;HPM_P1;HPM_P2
2024/01/15 00:02:20;;;;;;;103.78;79.18;;;3.90;99.90;;;;;;6183836;23;20040;-81
2024/01/15 00:04:46;;;;;;;109.95;81.13;;;3.80;99.90;;;;;;6183803;23;20084;-80
2024/01/15 00:07:12;;;;;;;108.20;82.82;;;3.80;99.90;;;;;;6157116;23;20043;-81
2024/01/15 00:09:37;;;;;;;111.43;82.47;;;3.70;99.90;;;;;;6183667;23;20008;-80
2024/01/15 00:12:03;;;;;;;119.40;86.90;;;3.70;99.90;;;;;;6183501;23;20368;-80
2024/01/15 00:14:29;;;;;;;116.15;85.15;;;3.70;99.90;;;;;;6183747;23;20025;-81
2024/01/15 00:16:55;;;;;;;111.85;80.70;;;3.70;99.90;;;;;;6183697;23;20083;-81
2024/01/15 00:19:22;;;;;;;113.70;83.53;;;3.60;99.90;;;;;;6157276;23;20005;-80
2024/01/15 00:21:48;;;;;;;117.05;83.55;;;3.60;99.90;;;;;;6183581;23;20007;-80
2024/01/15 00:24:14;;;;;;;110.72;78.53;;;3.50;99.90;;;;;;6183657;23;20025;-80
2024/01/15 00:26:40;;;;;;;104.45;77.13;;;3.50;99.90;;;;;;6157660;23;20005;-81
2024/01/15 00:29:07;;;;;;;103.97;75.60;;;3.50;99.90;;;;;;6185581;23;20008;-81
2024/01/15 00:31:33;;;;;;;82.40;59.90;;;3.50;99.90;;;;;;6185556;23;20072;-80
2024/01/15 00:33:59;;;;;;;86.05;62.25;;;3.50;99.90;;;;;;6185732;23;20033;-81
2024/01/15 00:36:25;;;;;;;65.95;49.42;;;3.50;99.90;;;;;;6185524;23;20005;-81
2024/01/15 00:38:51;;;;;;;60.45;46.10;;;3.50;99.90;;;;;;6185639;23;20338;-80
2024/01/15 00:41:18;;;;;;;56.97;43.60;;;3.60;99.90;;;;;;6159009;23;20001;-80
2024/01/15 00:43:45;;;;;;;51.50;40.00;;;3.70;99.90;;;;;;6159063;23;20055;-80
2024/01/15 00:46:11;;;;;;;54.00;40.90;;;3.70;99.90;;;;;;6185482;23;20001;-81
2024/01/15 00:48:37;;;;;;;52.00;39.92;;;3.70;99.90;;;;;;6185509;23;20323;-80
2024/01/15 00:51:03;;;;;;;51.90;40.42;;;3.80;99.90;;;;;;6185417;23;20009;-81
2024/01/15 00:53:29;;;;;;;52.92;37.92;;;3.80;99.90;;;;;;6185308;23;20441;-80
2024/01/15 00:55:55;;;;;;;51.45;39.35;;;3.90;99.90;;;;;;6185305;23;20001;-81
2024/01/15 00:58:20;;;;;;;49.53;37.33;;;3.90;99.90;;;;;;6185324;23;20127;-81
2024/01/15 01:00:46;;;;;;;49.38;37.15;;;3.90;99.90;;;;;;6185314;23;20009;-81
2024/01/15 01:03:12;;;;;;;48.65;36.60;;;4.00;99.90;;;;;;6185383;23;20012;-81
2024/01/15 01:05:38;;;;;;;52.08;38.90;;;4.00;99.90;;;;;;6159021;23;20001;-80
2024/01/15 01:08:04;;;;;;;59.35;42.47;;;4.00;99.90;;;;;;6185350;23;20425;-80
2024/01/15 01:10:30;;;;;;;60.17;45.67;;;4.00;99.90;;;;;;6158852;23;20048;-80
2024/01/15 01:12:56;;;;;;;68.63;48.83;;;4.00;99.90;;;;;;6185130;23;19997;-80
2024/01/15 01:15:22;;;;;;;71.82;51.95;;;4.00;99.90;;;;;;6185302;23;20001;-80
2024/01/15 01:17:48;;;;;;;75.78;53.47;;;4.00;99.90;;;;;;6158728;23;20009;-81
2024/01/15 01:20:15;;;;;;;75.95;53.80;;;3.90;99.90;;;;;;6185222;23;20036;-81
2024/01/15 01:22:41;;;;;;;79.07;55.00;;;3.90;99.90;;;;;;6185132;23;20008;-80
2024/01/15 01:25:07;;;;;;;77.80;57.60;;;3.90;99.90;;;;;;6185052;23;20438;-80
2024/01/15 01:27:32;;;;;;;98.68;71.10;;;3.90;99.90;;;;;;6184856;23;20107;-81
2024/01/15 01:29:58;;;;;;;88.82;66.93;;;3.80;99.90;;;;;;6185075;23;20001;-81
2024/01/15 01:32:24;;;;;;;98.05;71.25;;;3.80;99.90;;;;;;6185055;23;20055;-81
2024/01/15 01:34:50;;;;;;;100.43;73.47;;;3.80;99.90;;;;;;6185174;23;20043;-80
2024/01/15 01:37:15;;;;;;;102.85;75.20;;;3.80;99.90;;;;;;6184772;23;20032;-81
2024/01/15 01:39:43;;;;;;;99.53;71.05;;;3.90;99.90;;;;;;6184218;23;20001;-80
2024/01/15 01:42:09;;;;;;;100.50;73.40;;;3.90;99.90;;;;;;6185052;23;20358;-80
2024/01/15 01:44:35;;;;;;;97.38;70.85;;;3.90;99.90;;;;;;6184873;23;20004;-80
2024/01/15 01:47:01;;;;;;;91.03;67.75;;;3.90;99.90;;;;;;6185043;23;20437;-81
2024/01/15 01:49:28;;;;;;;96.25;71.93;;;3.90;99.90;;;;;;6184685;23;20318;-81
2024/01/15 01:51:58;;;;;;;91.07;67.68;;;3.90;99.90;;;;;;6158362;23;20055;-81
2024/01/15 01:54:26;;;;;;;87.47;65.93;;;3.90;99.90;;;;;;6185027;23;20005;-80
2024/01/15 01:56:52;;;;;;;84.90;60.45;;;3.90;99.90;;;;;;6158270;23;20005;-81
2024/01/15 01:59:18;;;;;;;84.80;59.90;;;4.00;99.90;;;;;;6183939;23;20047;-80
2024/01/15 02:01:45;;;;;;;90.60;65.03;;;4.00;99.90;;;;;;6184660;23;20013;-81
2024/01/15 02:04:11;;;;;;;94.57;67.80;;;4.00;99.90;;;;;;6184638;23;20009;-80
2024/01/15 02:06:37;;;;;;;88.97;64.65;;;4.00;99.90;;;;;;6158062;23;20009;-80
2024/01/15 02:09:05;;;;;;;85.07;62.42;;;4.00;99.90;;;;;;6158378;23;20063;-80
2024/01/15 02:11:31;;;;;;;91.55;63.72;;;4.00;99.90;;;;;;6157605;23;20063;-80
2024/01/15 02:13:57;;;;;;;89.28;65.65;;;4.00;99.90;;;;;;6158102;23;20345;-81
2024/01/15 02:16:23;;;;;;;86.80;64.70;;;4.00;99.90;;;;;;6158147;23;20012;-81
2024/01/15 02:18:48;;;;;;;89.80;64.72;;;4.00;99.90;;;;;;6184772;23;20380;-80
2024/01/15 02:21:14;;;;;;;96.63;67.65;;;4.00;99.90;;;;;;6157985;23;20009;-80
2024/01/15 02:23:40;;;;;;;94.85;66.07;;;4.00;99.90;;;;;;6184624;23;20001;-80
2024/01/15 02:26:08;;;;;;;107.13;70.70;;;4.00;99.90;;;;;;6184171;23;20012;-81
2024/01/15 02:28:34;;;;;;;92.65;64.80;;;4.00;99.90;;;;;;6157898;23;20048;-80
2024/01/15 02:30:59;;;;;;;94.50;65.45;;;3.90;99.90;;;;;;6158035;23;20016;-81
2024/01/15 02:33:25;;;;;;;90.18;66.13;;;4.00;99.90;;;;;;6158064;23;20346;-80
2024/01/15 02:35:51;;;;;;;88.15;63.75;;;4.00;99.90;;;;;;6183912;23;20004;-81
2024/01/15 02:38:17;;;;;;;90.45;64.95;;;4.00;99.90;;;;;;6184257;23;20047;-80
2024/01/15 02:40:44;;;;;;;88.03;63.13;;;4.00;99.90;;;;;;6157633;23;20341;-80
2024/01/15 02:43:10;;;;;;;88.15;65.30;;;4.00;99.90;;;;;;6157909;23;20055;-80
2024/01/15 02:45:35;;;;;;;87.13;64.63;;;4.00;99.90;;;;;;6184133;23;20085;-81
2024/01/15 02:48:01;;;;;;;85.43;65.07;;;4.00;99.90;;;;;;6184298;23;20028;-81
2024/01/15 02:50:27;;;;;;;86.95;64.05;;;4.00;99.90;;;;;;6157520;23;20005;-80
2024/01/15 02:52:53;;;;;;;83.50;61.13;;;4.00;99.90;;;;;;6158052;23;20001;-81
2024/01/15 02:55:18;;;;;;;80.75;60.75;;;4.00;99.90;;;;;;6157717;23;20008;-80
2024/01/15 02:57:44;;;;;;;90.80;66.07;;;4.00;99.90;;;;;;6183984;23;20021;-81
2024/01/15 03:00:11;;;;;;;99.63;72.25;;;4.00;99.90;;;;;;6157591;23;20313;-81
2024/01/15 03:02:39;;;;;;;98.35;70.45;;;3.90;99.90;;;;;;6157853;23;20005;-80
2024/01/15 03:05:09;;;;;;;97.65;70.80;;;4.00;99.90;;;;;;6157712;23;20012;-81
2024/01/15 03:07:35;;;;;;;95.32;68.63;;;4.00;99.90;;;;;;6157600;23;20059;-81
2024/01/15 03:10:01;;;;;;;88.10;66.60;;;3.90;99.90;;;;;;6184034;23;20420;-81
2024/01/15 03:12:27;;;;;;;93.00;68.07;;;4.00;99.90;;;;;;6183985;23;20005;-80
2024/01/15 03:14:52;;;;;;;92.38;64.93;;;4.00;99.90;;;;;;6183997;23;20001;-80
2024/01/15 03:17:18;;;;;;;91.30;65.07;;;3.90;99.90;;;;;;6157536;23;20418;-80
2024/01/15 03:19:44;;;;;;;86.93;64.97;;;3.90;99.90;;;;;;6157505;23;20421;-81
2024/01/15 03:22:10;;;;;;;91.47;68.78;;;3.90;99.90;;;;;;6157659;23;20008;-81
2024/01/15 03:24:36;;;;;;;92.00;67.88;;;3.90;99.90;;;;;;6157538;23;20492;-81
2024/01/15 03:27:02;;;;;;;89.95;66.85;;;3.90;99.90;;;;;;6157525;23;20353;-81
2024/01/15 03:29:28;;;;;;;96.72;68.43;;;3.90;99.90;;;;;;6183931;23;20001;-80
2024/01/15 03:31:53;;;;;;;92.45;66.53;;;3.90;99.90;;;;;;6183807;23;20081;-80
2024/01/15 03:34:19;;;;;;;90.35;64.03;;;3.90;99.90;;;;;;6157627;23;20100;-80
2024/01/15 03:36:45;;;;;;;91.55;66.22;;;3.90;99.90;;;;;;6157525;23;20410;-80
2024/01/15 03:39:11;;;;;;;86.38;65.68;;;3.90;99.90;;;;;;6183874;23;20005;-80
2024/01/15 03:41:37;;;;;;;83.97;64.18;;;3.90;99.90;;;;;;6157565;23;20001;-80
2024/01/15 03:44:02;;;;;;;88.40;64.63;;;3.90;99.90;;;;;;6157421;23;20008;-81
2024/01/15 03:46:28;;;;;;;88.72;68.00;;;3.90;99.90;;;;;;6157145;23;20341;-81
2024/01/15 03:48:54;;;;;;;90.78;65.25;;;3.90;99.90;;;;;;6182911;23;20012;-81
2024/01/15 03:51:20;;;;;;;90.05;66.80;;;3.90;99.90;;;;;;6157269;23;20245;-81
2024/01/15 03:53:46;;;;;;;90.32;67.35;;;3.80;99.90;;;;;;6157241;23;20032;-81
2024/01/15 03:56:12;;;;;;;86.13;61.90;;;3.90;99.90;;;;;;6157148;23;20062;-80
2024/01/15 03:58:38;;;;;;;76.75;58.33;;;3.80;99.90;;;;;;6157398;23;20437;-81
2024/01/15 04:01:03;;;;;;;103.60;66.07;;;3.80;99.90;;;;;;6156512;23;20045;-80
2024/01/15 04:03:29;;;;;;;87.47;64.70;;;3.80;99.90;;;;;;6156992;23;20012;-80
2024/01/15 04:05:55;;;;;;;95.57;68.70;;;3.70;99.90;;;;;;6183678;23;20001;-81
2024/01/15 04:08:21;;;;;;;93.43;66.15;;;3.80;99.90;;;;;;6157065;23;20012;-80
2024/01/15 04:10:46;;;;;;;88.82;65.30;;;3.70;99.90;;;;;;6183580;23;20337;-81
2024/01/15 04:13:12;;;;;;;85.57;63.58;;;3.70;99.90;;;;;;6157190;23;20009;-80
2024/01/15 04:15:38;;;;;;;87.32;65.05;;;3.70;99.90;;;;;;6157177;23;20011;-81
2024/01/15 04:18:04;;;;;;;84.30;64.10;;;3.70;99.90;;;;;;6157036;23;20430;-81
2024/01/15 04:20:29;;;;;;;82.63;60.58;;;3.60;99.90;;;;;;6157077;23;20001;-80
2024/01/15 04:22:55;;;;;;;86.50;60.42;;;3.70;99.90;;;;;;6157076;23;20028;-80
2024/01/15 04:25:21;;;;;;;80.63;56.67;;;3.70;99.90;;;;;;6183562;23;20057;-81
2024/01/15 04:27:47;;;;;;;75.72;56.50;;;3.70;99.90;;;;;;6183528;23;20001;-81
2024/01/15 04:30:13;;;;;;;80.32;58.30;;;3.70;99.90;;;;;;6157025;23;20071;-80
2024/01/15 04:32:38;;;;;;;85.55;62.83;;;3.70;99.90;;;;;;6183717;23;20028;-80
2024/01/15 04:35:04;;;;;;;74.43;57.30;;;3.70;99.90;;;;;;6183577;23;20005;-81
2024/01/15 04:37:30;;;;;;;79.13;59.75;;;3.60;99.90;;;;;;6182835;23;20425;-80
2024/01/15 04:39:57;;;;;;;88.57;65.65;;;3.60;99.90;;;;;;6183238;23;20449;-81
2024/01/15 04:42:23;;;;;;;86.70;63.90;;;3.60;99.90;;;;;;6183163;23;20080;-80
2024/01/15 04:44:49;;;;;;;91.07;68.05;;;3.60;99.90;;;;;;6182966;23;20055;-81
2024/01/15 04:47:15;;;;;;;95.07;70.18;;;3.60;99.90;;;;;;6156863;23;20028;-80
2024/01/15 04:49:41;;;;;;;94.13;70.53;;;3.70;99.90;;;;;;6183140;23;20048;-81
2024/01/15 04:52:06;;;;;;;86.40;65.93;;;3.70;99.90;;;;;;6157016;23;20015;-81
2024/01/15 04:54:32;;;;;;;82.57;61.80;;;3.60;99.90;;;;;;6157044;23;20088;-81
2024/01/15 04:56:58;;;;;;;88.30;66.25;;;3.60;99.90;;;;;;6183362;23;20001;-80
2024/01/15 04:59:24;;;;;;;88.32;65.05;;;3.50;99.90;;;;;;6156626;23;20412;-80
2024/01/15 05:01:50;;;;;;;83.65;61.95;;;3.50;99.90;;;;;;6156944;23;20096;-81
2024/01/15 05:04:15;;;;;;;78.13;58.28;;;3.50;99.90;;;;;;6156869;23;20040;-81
2024/01/15 05:06:41;;;;;;;81.30;60.38;;;3.40;99.90;;;;;;6183418;23;20032;-81
2024/01/15 05:09:07;;;;;;;82.22;61.38;;;3.40;99.90;;;;;;6183224;23;20033;-80
2024/01/15 05:11:33;;;;;;;84.53;61.67;;;3.30;99.90;;;;;;6183389;23;20035;-81
2024/01/15 05:13:58;;;;;;;71.57;54.22;;;3.30;99.90;;;;;;6158179;23;20409;-81
2024/01/15 05:16:24;;;;;;;77.60;57.35;;;3.20;99.90;;;;;;6158597;23;20084;-80
2024/01/15 05:18:50;;;;;;;91.13;66.22;;;3.10;99.90;;;;;;6158822;23;20005;-81
2024/01/15 05:21:16;;;;;;;88.20;69.25;;;3.00;99.90;;;;;;6185020;23;20001;-80
2024/01/15 05:23:41;;;;;;;94.43;70.30;;;2.90;99.90;;;;;;6158500;23;20333;-81
2024/01/15 05:26:08;;;;;;;76.03;58.58;;;2.90;99.90;;;;;;6158924;23;20015;-81
2024/01/15 05:28:35;;;;;;;83.00;65.03;;;2.80;99.90;;;;;;6184885;23;20005;-80
2024/01/15 05:31:01;;;;;;;86.60;64.07;;;2.70;99.90;;;;;;6184928;23;20361;-80
2024/01/15 05:33:27;;;;;;;95.32;69.75;;;2.70;99.90;;;;;;6185096;23;20016;-80
2024/01/15 05:35:53;;;;;;;95.97;70.10;;;2.70;99.90;;;;;;6184944;23;20029;-80
2024/01/15 05:38:19;;;;;;;88.87;64.87;;;2.70;99.90;;;;;;6185181;23;19997;-80
2024/01/15 05:40:45;;;;;;;89.90;63.03;;;2.70;99.90;;;;;;6185014;23;20001;-81
2024/01/15 05:43:11;;;;;;;94.53;67.10;;;2.50;99.90;;;;;;6158291;23;20096;-80
2024/01/15 05:45:38;;;;;;;88.40;67.47;;;2.30;99.90;;;;;;6184068;23;20005;-81
2024/01/15 05:48:04;;;;;;;82.33;61.27;;;2.30;99.90;;;;;;6184954;23;20005;-81
2024/01/15 05:50:30;;;;;;;85.15;59.10;;;2.30;99.90;;;;;;6184806;23;20030;-81
2024/01/15 05:52:56;;;;;;;78.37;57.03;;;2.40;99.90;;;;;;6184797;23;20338;-81
2024/01/15 05:55:22;;;;;;;69.80;52.43;;;2.40;99.90;;;;;;6184558;23;19998;-81
2024/01/15 05:57:47;;;;;;;71.73;53.50;;;2.50;99.90;;;;;;6184661;23;20005;-80
2024/01/15 06:00:13;;;;;;;74.18;54.75;;;2.50;99.90;;;;;;6185029;23;20009;-81
2024/01/15 06:02:39;;;;;;;71.37;52.00;;;2.50;99.90;;;;;;6157971;23;20031;-81
2024/01/15 06:05:06;;;;;;;70.37;49.97;;;2.50;99.90;;;;;;6158468;23;20445;-81
2024/01/15 06:07:33;;;;;;;69.37;51.10;;;2.50;99.90;;;;;;6184798;23;20083;-81
2024/01/15 06:09:59;;;;;;;62.47;47.47;;;2.60;99.90;;;;;;6157990;23;20005;-81
2024/01/15 06:12:24;;;;;;;62.07;45.50;;;2.60;99.90;;;;;;6184576;23;20333;-80
2024/01/15 06:14:50;;;;;;;59.70;44.72;;;2.70;99.90;;;;;;6183991;23;20005;-80
2024/01/15 06:17:16;;;;;;;59.67;43.50;;;2.70;99.90;;;;;;6158061;23;20059;-80
2024/01/15 06:19:42;;;;;;;59.27;43.83;;;2.70;99.90;;;;;;6184568;23;20385;-80
2024/01/15 06:22:07;;;;;;;53.97;40.07;;;2.70;99.90;;;;;;6184665;23;19993;-81
2024/01/15 06:24:33;;;;;;;57.10;40.90;;;2.70;99.90;;;;;;6184284;23;19997;-80
2024/01/15 06:26:59;;;;;;;56.77;41.37;;;2.70;99.90;;;;;;6158096;23;20013;-80
2024/01/15 06:29:27;;;;;;;53.07;39.17;;;2.80;99.90;;;;;;6156333;23;20425;-80
2024/01/15 06:31:53;;;;;;;50.45;39.20;;;2.80;99.90;;;;;;6155294;23;20048;-81
2024/01/15 06:34:19;;;;;;;53.72;38.92;;;2.80;99.90;;;;;;6156995;23;20083;-80
2024/01/15 06:36:44;;;;;;;50.95;39.40;;;2.80;99.90;;;;;;6185033;23;20009;-80
2024/01/15 06:39:10;;;;;;;57.00;39.75;;;2.70;99.90;;;;;;6184376;23;20001;-80
2024/01/15 06:41:43;;;;;;;56.57;42.17;;;2.70;99.90;;;;;;6158262;23;20033;-81
2024/01/15 06:44:10;;;;;;;51.17;39.10;;;2.60;99.90;;;;;;6185205;23;20071;-76
2024/01/15 06:46:36;;;;;;;56.43;42.87;;;2.60;99.90;;;;;;6158000;23;20009;-76
2024/01/15 06:49:02;;;;;;;56.60;41.43;;;2.50;99.90;;;;;;6184420;23;20406;-76
2024/01/15 06:51:29;;;;;;;56.15;41.70;;;2.50;99.90;;;;;;6184324;23;20001;-76
2024/01/15 06:53:54;;;;;;;55.33;41.27;;;2.50;99.90;;;;;;6184162;23;20012;-76
2024/01/15 06:56:20;;;;;;;51.88;40.40;;;2.50;99.90;;;;;;6157655;23;20488;-76
2024/01/15 06:58:46;;;;;;;52.93;40.37;;;2.60;99.90;;;;;;6184040;23;20024;-76
2024/01/15 07:01:12;;;;;;;52.83;41.10;;;2.60;99.90;;;;;;6183787;23;20076;-76
2024/01/15 07:03:38;;;;;;;62.10;42.03;;;2.60;99.90;;;;;;6157708;23;20025;-76
2024/01/15 07:06:04;;;;;;;58.43;44.10;;;2.60;99.90;;;;;;6183499;23;20005;-76
2024/01/15 07:08:30;;;;;;;61.55;44.58;;;2.50;99.90;;;;;;6183909;23;19997;-76
2024/01/15 07:10:55;;;;;;;61.40;44.33;;;2.50;99.90;;;;;;6183638;23;20012;-76
2024/01/15 07:13:21;;;;;;;57.40;43.57;;;2.50;99.90;;;;;;6157310;23;20013;-76
2024/01/15 07:15:47;;;;;;;62.63;43.87;;;2.50;99.90;;;;;;6183716;23;20448;-76
2024/01/15 07:18:12;;;;;;;62.03;44.70;;;2.50;99.90;;;;;;6183677;23;20084;-76
2024/01/15 07:20:38;;;;;;;66.37;47.43;;;2.40;99.90;;;;;;6183974;23;20001;-76
2024/01/15 07:23:04;;;;;;;63.77;43.57;;;2.40;99.90;;;;;;6184010;23;20001;-76
2024/01/15 07:25:30;;;;;;;61.63;44.17;;;2.50;99.90;;;;;;6157695;23;20440;-76
2024/01/15 07:27:55;;;;;;;62.03;42.60;;;2.60;99.90;;;;;;6157514;23;20015;-76
2024/01/15 07:30:21;;;;;;;56.90;41.43;;;2.60;99.90;;;;;;6157315;23;20013;-76
2024/01/15 07:32:47;;;;;;;51.83;40.40;;;2.60;99.90;;;;;;6157542;23;20009;-76
2024/01/15 07:35:16;;;;;;;55.50;41.70;;;2.70;99.90;;;;;;6157240;23;20517;-76
2024/01/15 07:37:42;;;;;;;75.13;51.67;;;2.60;99.90;;;;;;6157365;23;20009;-76
2024/01/15 07:40:08;;;;;;;72.63;47.53;;;2.70;99.90;;;;;;6157292;23;20341;-76
2024/01/15 07:42:35;;;;;;;63.53;44.70;;;2.60;99.90;;;;;;6157487;23;20008;-76
2024/01/15 07:45:01;;;;;;;61.77;43.00;;;2.50;99.90;;;;;;6157145;23;20082;-76
2024/01/15 07:47:27;;;;;;;65.80;48.87;;;2.50;99.90;;;;;;6183845;23;20004;-76
2024/01/15 07:49:53;;;;;;;64.07;47.37;;;2.50;99.90;;;;;;6183642;23;20000;-76
2024/01/15 07:52:19;;;;;;;65.57;47.53;;;2.50;99.90;;;;;;6183708;23;20430;-76
2024/01/15 07:54:45;;;;;;;63.23;45.70;;;2.50;99.90;;;;;;6157477;23;20036;-76
2024/01/15 07:57:11;;;;;;;60.87;44.93;;;2.60;99.90;;;;;;6183758;23;20001;-76
2024/01/15 07:59:37;;;;;;;59.70;44.08;;;2.60;99.90;;;;;;6183496;23;20059;-76
2024/01/15 08:02:03;;;;;;;52.90;40.33;;;2.60;99.90;;;;;;6156879;23;20177;-76
2024/01/15 08:04:28;;;;;;;56.78;39.67;;;2.70;99.90;;;;;;6183828;23;19997;-76
2024/01/15 08:06:54;;;;;;;58.13;42.40;;;2.70;99.90;;;;;;6183497;23;20005;-76
2024/01/15 08:09:20;;;;;;;60.57;44.00;;;2.70;99.90;;;;;;6183615;23;20076;-76
2024/01/15 08:11:46;;;;;;;60.70;42.97;;;2.70;99.90;;;;;;6157165;23;20059;-76
2024/01/15 08:14:13;;;;;;;56.22;40.75;;;2.70;99.90;;;;;;6157252;23;20010;-76
2024/01/15 08:16:38;;;;;;;54.53;39.23;;;2.70;99.90;;;;;;6183424;23;20001;-76
2024/01/15 08:19:05;;;;;;;56.40;38.87;;;2.70;99.90;;;;;;6183481;23;20005;-76
2024/01/15 08:21:31;;;;;;;54.58;40.58;;;2.70;99.90;;;;;;6183588;23;20001;-76
2024/01/15 08:24:02;;;;;;;49.55;36.92;;;2.80;99.90;;;;;;6183324;23;20441;-76
2024/01/15 08:26:28;;;;;;;53.80;40.00;;;2.80;99.90;;;;;;6156982;23;20009;-76
2024/01/15 08:28:54;;;;;;;58.53;41.43;;;2.80;99.90;;;;;;6156839;23;20001;-76
2024/01/15 08:31:19;;;;;;;54.83;39.83;;;2.80;99.90;;;;;;6183474;23;20005;-76
2024/01/15 08:33:45;;;;;;;61.93;43.30;;;2.80;99.90;;;;;;6157189;23;20426;-76
2024/01/15 08:36:11;;;;;;;61.67;44.67;;;2.80;99.90;;;;;;6183266;23;20016;-76
2024/01/15 08:38:37;;;;;;;60.70;45.55;;;2.80;99.90;;;;;;6156939;23;20005;-77
2024/01/15 08:41:03;;;;;;;65.17;46.83;;;2.80;99.90;;;;;;6183489;23;20008;-76
2024/01/15 08:43:30;;;;;;;67.53;45.33;;;2.90;99.90;;;;;;6183050;23;19997;-76
2024/01/15 08:45:56;;;;;;;60.83;44.87;;;2.90;99.90;;;;;;6157165;23;20084;-76
2024/01/15 08:48:22;;;;;;;60.55;44.80;;;2.90;99.90;;;;;;6184361;23;20004;-76
2024/01/15 08:50:48;;;;;;;75.57;52.00;;;3.00;99.90;;;;;;6185308;23;20005;-76
2024/01/15 08:53:14;;;;;;;74.22;52.58;;;3.00;99.90;;;;;;6185402;23;20004;-76
2024/01/15 08:55:42;;;;;;;77.73;53.60;;;3.00;99.90;;;;;;6158792;23;20368;-76
2024/01/15 08:58:08;;;;;;;76.40;54.87;;;3.10;99.90;;;;;;6185305;23;20337;-76
2024/01/15 09:00:34;;;;;;;80.10;57.30;;;3.10;99.90;;;;;;6185196;23;20441;-76
2024/01/15 09:03:00;;;;;;;71.63;53.20;;;3.10;99.90;;;;;;6158950;23;20001;-76
2024/01/15 09:05:26;;;;;;;72.90;53.97;;;3.00;99.90;;;;;;6185236;23;20032;-76
2024/01/15 09:07:52;;;;;;;83.63;61.67;;;3.10;99.90;;;;;;6185350;23;20493;-76
2024/01/15 09:10:18;;;;;;;103.83;71.37;;;3.10;99.90;;;;;;6158511;23;20422;-76
2024/01/15 09:12:44;;;;;;;101.00;75.80;;;3.10;99.90;;;;;;6158914;23;20032;-76
2024/01/15 09:15:09;;;;;;;93.07;71.13;;;3.20;99.90;;;;;;6184937;23;20005;-76
2024/01/15 09:17:35;;;;;;;88.63;69.17;;;3.20;99.90;;;;;;6185045;23;20044;-76
2024/01/15 09:20:01;;;;;;;88.73;69.50;;;3.30;99.90;;;;;;6158567;23;20051;-76
2024/01/15 09:22:27;;;;;;;99.75;73.20;;;3.40;99.90;;;;;;6158814;23;20013;-76
2024/01/15 09:24:52;;;;;;;98.50;70.13;;;3.40;99.90;;;;;;6185192;23;20001;-76
2024/01/15 09:27:18;;;;;;;92.00;68.25;;;3.40;99.90;;;;;;6184910;23;20088;-76
2024/01/15 09:29:45;;;;;;;90.40;68.05;;;3.40;99.90;;;;;;6158351;23;20005;-76
2024/01/15 09:32:12;;;;;;;89.47;67.20;;;3.50;99.90;;;;;;6185137;23;20096;-76
2024/01/15 09:34:38;;;;;;;88.05;65.30;;;3.60;99.90;;;;;;6184703;23;19993;-76
2024/01/15 09:37:05;;;;;;;93.38;69.13;;;3.60;99.90;;;;;;6158494;23;20016;-76
2024/01/15 09:39:31;;;;;;;95.60;68.38;;;3.70;99.90;;;;;;6158242;23;20005;-76
2024/01/15 09:42:00;;;;;;;86.90;67.45;;;3.70;99.90;;;;;;6184230;23;20005;-76
2024/01/15 09:44:28;;;;;;;83.72;63.42;;;3.80;99.90;;;;;;6185090;23;20379;-76
2024/01/15 09:46:55;;;;;;;89.65;64.72;;;3.80;99.90;;;;;;6184973;23;20001;-76
2024/01/15 09:49:21;;;;;;;87.90;61.65;;;3.80;99.90;;;;;;6184856;23;20005;-76
2024/01/15 09:51:47;;;;;;;85.90;61.53;;;3.90;99.90;;;;;;6158419;23;20084;-76
2024/01/15 09:54:16;;;;;;;82.82;60.88;;;4.00;99.90;;;;;;6158534;23;20311;-76
2024/01/15 09:56:45;;;;;;;68.57;52.53;;;4.00;99.90;;;;;;6158358;23;20060;-76
2024/01/15 09:59:14;;;;;;;64.90;49.35;;;4.10;99.90;;;;;;6157795;23;20001;-76
2024/01/15 10:01:41;;;;;;;59.17;44.30;;;4.10;99.90;;;;;;6184555;23;20450;-76
2024/01/15 10:04:07;;;;;;;63.15;43.10;;;4.10;99.90;;;;;;6158267;23;20449;-76
2024/01/15 10:06:34;;;;;;;64.25;43.42;;;4.20;95.20;;;;;;6184945;23;20105;-76
2024/01/15 10:09:00;;;;;;;56.90;37.83;;;4.20;96.50;;;;;;6184497;23;20005;-76
2024/01/15 10:11:26;;;;;;;48.72;36.17;;;4.20;61.20;;;;;;6158123;23;20429;-76
2024/01/15 10:13:53;;;;;;;50.63;36.05;;;4.20;58.50;;;;;;6184807;23;20005;-76
2024/01/15 10:16:22;;;;;;;44.10;33.63;;;4.30;73.20;;;;;;6184599;23;20016;-76
2024/01/15 10:18:48;;;;;;;47.92;34.25;;;4.40;77.80;;;;;;6184762;23;20028;-76
2024/01/15 10:21:15;;;;;;;64.03;38.97;;;4.40;56.90;;;;;;6184718;23;19997;-76
2024/01/15 10:23:41;;;;;;;53.65;36.72;;;4.40;65.00;;;;;;6184602;23;19997;-76
2024/01/15 10:26:07;;;;;;;51.17;37.55;;;4.50;78.50;;;;;;6157899;23;20055;-76
2024/01/15 10:28:33;;;;;;;49.55;37.10;;;4.50;79.80;;;;;;6184379;23;20333;-76
2024/01/15 10:31:00;;;;;;;50.47;37.28;;;4.50;83.20;;;;;;6184523;23;20001;-75
2024/01/15 10:33:26;;;;;;;58.60;38.83;;;4.50;91.40;;;;;;6184524;23;20337;-76
2024/01/15 10:35:56;;;;;;;52.97;36.72;;;4.60;85.50;;;;;;6158006;23;20013;-76
2024/01/15 10:38:23;;;;;;;49.80;36.40;;;4.60;74.70;;;;;;6157977;23;20009;-76
2024/01/15 10:40:53;;;;;;;53.28;36.30;;;4.70;80.50;;;;;;6184121;23;20446;-76
2024/01/15 10:43:20;;;;;;;46.03;34.80;;;4.70;79.40;;;;;;6184439;23;20333;-76
2024/01/15 10:45:50;;;;;;;53.08;36.75;;;4.70;59.80;;;;;;6158058;23;20460;-76
2024/01/15 10:48:19;;;;;;;45.10;34.30;;;4.70;69.60;;;;;;6157939;23;20036;-76
2024/01/15 10:50:46;;;;;;;50.70;34.38;;;4.60;70.40;;;;;;6184212;23;20041;-76
2024/01/15 10:53:15;;;;;;;45.05;33.92;;;4.60;66.90;;;;;;6184395;23;20045;-76
2024/01/15 10:55:42;;;;;;;51.40;34.90;;;4.60;77.10;;;;;;6157749;23;20092;-76
2024/01/15 10:58:09;;;;;;;50.05;36.92;;;4.60;86.60;;;;;;6184338;23;20009;-76
2024/01/15 11:00:38;;;;;;;51.05;36.67;;;4.60;87.70;;;;;;6156849;23;20005;-76
2024/01/15 11:03:06;;;;;;;54.65;38.33;;;4.70;89.40;;;;;;6157928;23;20398;-76
2024/01/15 11:05:44;;;;;;;48.13;36.95;;;4.70;93.40;;;;;;6184317;23;20005;-76
2024/01/15 11:08:18;;;;;;;52.53;37.95;;;4.70;94.80;;;;;;6184136;23;20430;-76
2024/01/15 11:10:49;;;;;;;50.88;38.90;;;4.70;94.70;;;;;;6157461;23;20032;-76
2024/01/15 11:13:33;;;;;;;57.15;38.83;;;4.70;92.70;;;;;;6184116;23;20430;-76
2024/01/15 11:16:03;;;;;;;54.42;40.05;;;4.70;94.30;;;;;;6184353;23;20008;-76
2024/01/15 11:18:41;;;;;;;54.45;40.83;;;4.70;91.80;;;;;;6184084;23;20008;-76
2024/01/15 11:21:16;;;;;;;60.38;40.25;;;4.60;91.50;;;;;;6184202;23;19997;-76
2024/01/15 11:23:52;;;;;;;55.55;40.58;;;4.60;95.20;;;;;;6184315;23;20011;-76
2024/01/15 11:26:46;;;;;;;58.42;41.95;;;4.60;95.10;;;;;;6184084;23;20001;-76
2024/01/15 11:29:27;;;;;;;58.38;40.78;;;4.60;94.40;;;;;;6157476;23;20009;-76
2024/01/15 11:31:58;;;;;;;56.15;40.95;;;4.60;96.90;;;;;;6157710;23;20005;-76
2024/01/15 11:34:57;;;;;;;64.05;41.83;;;4.60;94.40;;;;;;6183806;23;20013;-76
2024/01/15 11:37:24;;;;;;;62.17;41.60;;;4.50;96.00;;;;;;6183963;23;20088;-76
2024/01/15 11:39:52;;;;;;;69.22;42.70;;;4.50;96.70;;;;;;6183680;23;20072;-76
2024/01/15 11:42:19;;;;;;;60.25;42.72;;;4.50;96.00;;;;;;6183736;23;20005;-76
2024/01/15 11:44:45;;;;;;;62.53;43.15;;;4.50;98.60;;;;;;6183917;23;20064;-76
2024/01/15 11:47:13;;;;;;;72.63;44.88;;;4.50;99.90;;;;;;6157491;23;20036;-76
2024/01/15 11:50:00;;;;;;;63.42;45.10;;;4.50;99.90;;;;;;6183564;23;20075;-76
2024/01/15 11:52:31;;;;;;;68.68;46.45;;;4.60;99.90;;;;;;6183901;23;20084;-76
2024/01/15 11:55:20;;;;;;;70.28;49.90;;;4.70;99.90;;;;;;6183920;23;20009;-76
2024/01/15 11:57:54;;;;;;;72.32;52.92;;;4.80;99.90;;;;;;6157174;23;20016;-76
2024/01/15 12:00:21;;;;;;;75.78;52.70;;;5.00;99.90;;;;;;6183609;23;20068;-76
2024/01/15 12:02:48;;;;;;;79.60;56.17;;;5.10;99.90;;;;;;6157088;23;20017;-76
2024/01/15 12:05:19;;;;;;;83.45;57.92;;;5.20;93.10;;;;;;6183831;23;20059;-76
2024/01/15 12:07:47;;;;;;;93.25;56.38;;;5.30;93.60;;;;;;6183745;23;20075;-76
2024/01/15 12:10:14;;;;;;;76.43;55.30;;;5.40;96.40;;;;;;6183415;23;20185;-76
2024/01/15 12:13:00;;;;;;;75.88;54.50;;;5.50;99.90;;;;;;6183535;23;20008;-76
2024/01/15 12:15:30;;;;;;;73.43;51.13;;;5.60;84.30;;;;;;6156882;23;20079;-76
2024/01/15 12:17:57;;;;;;;82.00;57.22;;;5.70;82.60;;;;;;6157115;23;20005;-76
2024/01/15 12:20:24;;;;;;;77.45;51.75;;;5.70;56.30;;;;;;6183492;23;19997;-76
2024/01/15 12:22:50;;;;;;;76.32;53.40;;;5.80;69.90;;;;;;6156812;23;20006;-76
2024/01/15 12:25:16;;;;;;;74.35;54.63;;;5.80;64.90;;;;;;6156737;23;20064;-76
2024/01/15 12:27:41;;;;;;;76.35;54.85;;;5.80;70.20;;;;;;6183441;23;20075;-76
2024/01/15 12:30:10;;;;;;;77.68;51.42;;;5.90;63.00;;;;;;6156263;23;20033;-76
2024/01/15 12:32:36;;;;;;;71.32;50.33;;;5.90;58.50;;;;;;6183432;23;20009;-76
2024/01/15 12:35:05;;;;;;;76.05;50.42;;;5.90;51.90;;;;;;6183592;23;20071;-76